createdAt,value
2022-11-28T00:01:44.480Z,8.46
2022-11-28T00:04:13.598Z,8.58
2022-11-28T00:06:49.042Z,8.72
2022-11-28T00:09:21.349Z,8.77
2022-11-28T00:11:49.680Z,8.90
2022-11-28T00:14:19.804Z,9.25
2022-11-28T00:16:47.514Z,8.88
2022-11-28T00:19:15.591Z,8.95
2022-11-28T00:21:47.245Z,8.76
2022-11-28T00:24:15.038Z,8.67
2022-11-28T00:26:43.123Z,8.75
2022-11-28T00:29:11.642Z,8.86
2022-11-28T00:31:43.159Z,8.84
2022-11-28T00:34:13.776Z,8.80
2022-11-28T00:36:44.848Z,8.98
2022-11-28T00:39:13.588Z,8.84
2022-11-28T00:41:44.102Z,8.80
2022-11-28T00:44:12.864Z,8.93
2022-11-28T00:46:41.386Z,8.80
2022-11-28T00:49:09.514Z,8.61
2022-11-28T00:51:38.553Z,8.80
2022-11-28T00:54:07.662Z,8.87
2022-11-28T00:56:38.505Z,9.00
2022-11-28T00:59:07.316Z,8.94
2022-11-28T01:01:43.921Z,9.04
2022-11-28T01:04:14.386Z,8.96
2022-11-28T01:06:46.730Z,8.94
2022-11-28T01:09:17.305Z,8.97
2022-11-28T01:11:46.072Z,8.76
2022-11-28T01:14:14.220Z,9.10
2022-11-28T01:16:42.421Z,8.88
2022-11-28T01:19:10.717Z,8.79
2022-11-28T01:21:38.560Z,8.93
2022-11-28T01:24:06.537Z,8.87
2022-11-28T01:26:34.766Z,8.87
2022-11-28T01:29:02.599Z,8.44
2022-11-28T01:31:31.167Z,8.28
2022-11-28T01:33:59.722Z,8.26
2022-11-28T01:36:29.799Z,8.42
2022-11-28T01:38:58.548Z,8.72
2022-11-28T01:41:27.627Z,8.73
2022-11-28T01:44:09.314Z,8.60
2022-11-28T01:46:37.426Z,8.57
2022-11-28T01:49:08.681Z,8.51
2022-11-28T01:51:45.410Z,8.50
2022-11-28T01:54:13.603Z,8.51
2022-11-28T01:56:51.338Z,8.44
2022-11-28T01:59:19.884Z,8.39
2022-11-28T02:01:48.274Z,8.49
2022-11-28T02:06:54.986Z,8.62
2022-11-28T02:09:31.369Z,8.63
2022-11-28T02:12:46.768Z,8.58
2022-11-28T02:16:05.538Z,8.50
2022-11-28T02:19:16.568Z,8.28
2022-11-28T02:22:14.833Z,8.16
2022-11-28T02:24:57.396Z,8.18
2022-11-28T02:28:24.915Z,8.16
2022-11-28T02:31:33.577Z,8.22
2022-11-28T02:34:50.439Z,8.27
2022-11-28T02:37:55.063Z,8.11
2022-11-28T02:40:54.670Z,8.27
2022-11-28T02:44:12.553Z,8.24
2022-11-28T02:46:58.303Z,8.44
2022-11-28T02:49:29.994Z,8.38
2022-11-28T02:52:05.707Z,8.22
2022-11-28T02:54:33.684Z,8.08
2022-11-28T02:57:03.740Z,8.15
2022-11-28T02:59:37.644Z,8.16
2022-11-28T03:02:14.084Z,8.18
2022-11-28T03:04:56.622Z,8.08
2022-11-28T03:08:02.993Z,8.09
2022-11-28T03:15:01.075Z,7.98
2022-11-28T03:17:44.383Z,7.92
2022-11-28T03:20:26.452Z,7.90
2022-11-28T03:23:21.775Z,8.03
2022-11-28T03:26:11.948Z,7.84
2022-11-28T03:29:03.750Z,7.83
2022-11-28T03:31:51.778Z,7.78
2022-11-28T03:34:46.614Z,7.77
2022-11-28T03:38:07.318Z,7.78
2022-11-28T03:40:40.589Z,7.84
2022-11-28T03:43:16.026Z,7.80
2022-11-28T03:45:49.740Z,7.87
2022-11-28T03:48:42.293Z,7.99
2022-11-28T03:51:27.753Z,8.03
2022-11-28T03:54:04.767Z,7.95
2022-11-28T03:57:00.276Z,7.99
2022-11-28T03:59:51.967Z,8.07
2022-11-28T04:02:26.341Z,7.98
2022-11-28T04:05:22.558Z,8.03
2022-11-28T04:08:13.465Z,8.12
2022-11-28T04:11:14.751Z,8.18
2022-11-28T04:13:59.332Z,7.86
2022-11-28T04:17:13.250Z,7.51
2022-11-28T04:19:51.044Z,7.74
2022-11-28T04:22:34.699Z,7.50
2022-11-28T04:25:06.486Z,7.47
2022-11-28T04:27:38.924Z,7.50
2022-11-28T04:30:08.193Z,7.15
2022-11-28T04:32:39.884Z,7.21
2022-11-28T04:35:11.716Z,7.43
2022-11-28T04:37:41.085Z,7.78
2022-11-28T04:45:38.742Z,7.75
2022-11-28T04:48:07.838Z,7.77
2022-11-28T04:51:00.705Z,7.68
2022-11-28T04:53:35.962Z,7.77
2022-11-28T04:56:09.393Z,7.57
2022-11-28T04:58:41.162Z,7.25
2022-11-28T05:01:10.716Z,7.43
2022-11-28T05:03:42.559Z,7.63
2022-11-28T05:06:11.057Z,7.74
2022-11-28T05:08:40.623Z,7.43
2022-11-28T05:11:08.819Z,7.72
2022-11-28T05:13:37.412Z,7.79
2022-11-28T05:16:07.555Z,7.88
2022-11-28T05:18:36.822Z,7.84
2022-11-28T05:21:08.991Z,7.68
2022-11-28T05:23:40.659Z,7.89
2022-11-28T05:26:20.448Z,7.96
2022-11-28T05:28:50.946Z,7.85
2022-11-28T05:31:20.852Z,8.10
2022-11-28T05:33:50.112Z,8.06
2022-11-28T05:36:18.959Z,8.13
2022-11-28T05:39:19.871Z,8.22
2022-11-28T05:42:07.803Z,8.06
2022-11-28T05:44:37.199Z,8.13
2022-11-28T05:47:05.446Z,8.11
2022-11-28T05:49:33.509Z,8.10
2022-11-28T05:52:03.772Z,8.22
2022-11-28T05:54:32.212Z,8.26
2022-11-28T05:57:04.622Z,7.67
2022-11-28T05:59:33.850Z,7.78
2022-11-28T06:02:06.950Z,7.98
2022-11-28T06:04:38.302Z,7.90
2022-11-28T06:07:06.393Z,7.96
2022-11-28T06:09:38.667Z,7.92
2022-11-28T06:12:13.756Z,7.88
2022-11-28T06:14:43.678Z,7.76
2022-11-28T06:17:14.974Z,7.54
2022-11-28T06:19:43.315Z,7.85
2022-11-28T06:22:20.787Z,7.88
2022-11-28T06:24:48.700Z,8.07
2022-11-28T06:27:17.979Z,8.10
2022-11-28T06:29:49.805Z,7.93
2022-11-28T06:32:22.035Z,8.01
2022-11-28T06:34:49.969Z,7.80
2022-11-28T06:37:26.679Z,7.95
2022-11-28T06:39:59.302Z,7.92
2022-11-28T06:42:39.690Z,7.88
2022-11-28T06:45:08.884Z,7.96
2022-11-28T06:47:37.139Z,8.01
2022-11-28T06:50:05.687Z,7.72
2022-11-28T06:52:33.714Z,7.92
2022-11-28T06:55:19.839Z,7.80
2022-11-28T06:58:02.886Z,7.87
2022-11-28T07:00:54.974Z,7.81
2022-11-28T07:03:39.994Z,7.84
2022-11-28T07:06:13.764Z,7.86
2022-11-28T07:11:42.418Z,8.09
2022-11-28T07:14:25.112Z,7.87
2022-11-28T07:17:08.093Z,7.71
2022-11-28T07:20:05.987Z,7.77
2022-11-28T07:22:49.849Z,7.86
2022-11-28T07:25:36.257Z,8.01
2022-11-28T07:28:32.003Z,7.94
2022-11-28T07:31:20.093Z,7.92
2022-11-28T07:34:12.301Z,7.87
2022-11-28T07:36:54.271Z,7.69
2022-11-28T07:39:37.895Z,7.81
2022-11-28T07:42:30.065Z,7.80
2022-11-28T07:45:12.870Z,7.82
2022-11-28T07:48:04.843Z,7.90
2022-11-28T07:50:50.713Z,7.71
2022-11-28T07:53:45.575Z,7.44
2022-11-28T07:56:57.225Z,7.38
2022-11-28T07:59:24.314Z,7.05
2022-11-28T08:02:07.655Z,6.97
2022-11-28T08:04:54.974Z,6.81
2022-11-28T08:07:34.253Z,6.73
2022-11-28T08:10:18.123Z,6.89
2022-11-28T08:13:10.211Z,6.87
2022-11-28T08:15:50.910Z,6.97
2022-11-28T08:18:49.671Z,7.02
2022-11-28T08:21:34.549Z,6.75
2022-11-28T08:24:19.236Z,6.84
2022-11-28T08:27:13.747Z,6.85
2022-11-28T08:29:56.700Z,6.89
2022-11-28T08:32:40.854Z,6.91
2022-11-28T08:35:35.259Z,6.75
2022-11-28T08:38:18.163Z,7.17
2022-11-28T08:41:13.262Z,7.09
2022-11-28T08:43:57.307Z,7.01
2022-11-28T08:46:39.782Z,7.13
2022-11-28T08:49:22.091Z,7.40
2022-11-28T08:52:19.886Z,7.28
2022-11-28T08:54:59.804Z,7.10
2022-11-28T08:57:41.703Z,7.11
2022-11-28T09:00:33.890Z,6.89
2022-11-28T09:03:22.226Z,7.03
2022-11-28T09:06:16.889Z,6.75
2022-11-28T09:08:56.031Z,6.26
2022-11-28T09:11:39.734Z,6.85
2022-11-28T09:14:22.815Z,7.11
2022-11-28T09:17:16.115Z,6.84
2022-11-28T09:19:58.856Z,6.91
2022-11-28T09:22:42.732Z,7.02
2022-11-28T09:25:41.271Z,7.15
2022-11-28T09:28:21.184Z,7.27
2022-11-28T09:31:20.648Z,6.95
2022-11-28T09:34:05.723Z,7.21
2022-11-28T09:36:50.187Z,6.99
2022-11-28T09:40:11.324Z,7.15
2022-11-28T09:42:44.099Z,7.01
2022-11-28T09:45:27.961Z,7.01
2022-11-28T09:48:23.227Z,7.18
2022-11-28T09:51:35.770Z,7.22
2022-11-28T09:54:41.127Z,6.78
2022-11-28T09:57:46.495Z,7.12
2022-11-28T10:00:38.638Z,7.16
2022-11-28T10:03:43.022Z,7.04
2022-11-28T10:06:48.217Z,7.50
2022-11-28T10:09:34.089Z,7.32
2022-11-28T10:12:44.666Z,7.05
2022-11-28T10:16:09.648Z,7.13
2022-11-28T10:18:59.163Z,6.61
2022-11-28T10:21:59.393Z,7.15
2022-11-28T10:24:41.976Z,7.13
2022-11-28T10:27:37.527Z,7.09
2022-11-28T10:30:22.854Z,6.60
2022-11-28T10:33:41.778Z,6.96
2022-11-28T10:37:02.827Z,7.05
2022-11-28T10:39:46.572Z,7.00
2022-11-28T10:47:17.236Z,6.84
2022-11-28T10:50:15.672Z,6.84
2022-11-28T10:53:00.948Z,6.69
2022-11-28T10:56:11.741Z,6.73
2022-11-28T10:59:09.863Z,6.77
2022-11-28T11:01:53.772Z,6.72
2022-11-28T11:04:37.505Z,6.77
2022-11-28T11:07:31.436Z,6.71
2022-11-28T11:10:21.626Z,7.13
2022-11-28T11:13:21.656Z,7.11
2022-11-28T11:20:38.997Z,7.54
2022-11-28T11:23:23.084Z,7.41
2022-11-28T11:26:10.668Z,7.37
2022-11-28T11:28:57.172Z,7.21
2022-11-28T11:31:44.884Z,7.34
2022-11-28T11:34:28.630Z,7.62
2022-11-28T11:37:37.845Z,7.27
2022-11-28T11:40:23.426Z,7.78
2022-11-28T11:43:23.765Z,7.70
2022-11-28T11:46:23.652Z,7.79
2022-11-28T11:49:06.216Z,7.57
2022-11-28T11:52:28.226Z,7.88
2022-11-28T11:55:12.395Z,7.61
2022-11-28T11:58:06.913Z,7.85
2022-11-28T12:00:58.835Z,8.02
2022-11-28T12:08:18.994Z,7.51
2022-11-28T12:11:28.722Z,7.59
2022-11-28T12:18:36.006Z,7.39
2022-11-28T12:21:36.916Z,6.84
2022-11-28T12:24:29.958Z,7.77
2022-11-28T12:27:42.833Z,7.46
2022-11-28T12:30:25.259Z,7.40
2022-11-28T12:33:29.547Z,7.25
2022-11-28T12:36:21.393Z,7.56
2022-11-28T12:39:37.999Z,7.53
2022-11-28T12:42:35.611Z,7.22
2022-11-28T12:45:43.639Z,7.67
2022-11-28T12:49:03.132Z,7.61
2022-11-28T12:52:24.532Z,7.28
2022-11-28T12:55:25.759Z,7.35
2022-11-28T12:58:26.788Z,7.34
2022-11-28T13:01:29.767Z,7.43
2022-11-28T13:04:31.956Z,7.10
2022-11-28T13:07:30.163Z,7.71
2022-11-28T13:10:32.247Z,7.56
2022-11-28T13:13:32.241Z,7.44
2022-11-28T13:16:44.237Z,7.24
2022-11-28T13:19:42.915Z,7.74
2022-11-28T13:22:31.651Z,7.35
2022-11-28T13:25:44.823Z,6.95
2022-11-28T13:28:45.657Z,7.33
2022-11-28T13:31:40.795Z,7.52
2022-11-28T13:34:38.749Z,7.61
2022-11-28T13:40:35.423Z,7.38
2022-11-28T13:43:44.123Z,7.62
2022-11-28T13:46:28.588Z,7.66
2022-11-28T13:49:25.989Z,8.01
2022-11-28T13:52:26.327Z,7.48
2022-11-28T13:57:41.699Z,7.27
2022-11-28T14:00:29.527Z,7.17
2022-11-28T14:03:00.188Z,7.49
2022-11-28T14:05:39.026Z,7.45
2022-11-28T14:14:29.646Z,7.25
2022-11-28T14:17:32.010Z,7.61
2022-11-28T14:20:20.646Z,7.63
2022-11-28T14:23:04.438Z,7.41
2022-11-28T14:25:42.777Z,7.31
2022-11-28T14:28:26.979Z,7.54
2022-11-28T14:31:05.630Z,7.36
2022-11-28T14:33:42.625Z,7.31
2022-11-28T14:39:34.395Z,7.40
2022-11-28T14:42:30.587Z,7.42
2022-11-28T14:47:46.490Z,7.22
2022-11-28T14:53:41.932Z,7.49
2022-11-28T14:59:04.565Z,7.35
2022-11-28T15:01:46.003Z,7.36
2022-11-28T15:04:42.805Z,7.38
2022-11-28T15:10:20.268Z,7.10
2022-11-28T15:13:04.884Z,7.09
2022-11-28T15:15:34.560Z,7.08
2022-11-28T15:18:05.590Z,7.04
2022-11-28T15:20:48.517Z,7.12
2022-11-28T15:23:28.301Z,6.89
2022-11-28T15:26:00.990Z,6.85
2022-11-28T15:28:42.636Z,6.89
2022-11-28T15:31:24.596Z,6.98
2022-11-28T15:34:00.885Z,6.81
2022-11-28T15:36:38.286Z,6.99
2022-11-28T15:42:04.579Z,6.46
2022-11-28T15:44:48.000Z,6.84
2022-11-28T15:47:32.631Z,6.97
2022-11-28T15:50:12.620Z,7.11
2022-11-28T15:52:59.180Z,6.95
2022-11-28T15:55:32.623Z,6.83
2022-11-28T16:01:17.161Z,6.88
2022-11-28T16:03:59.579Z,6.68
2022-11-28T16:06:30.880Z,6.59
2022-11-28T16:09:19.831Z,6.84
2022-11-28T16:14:34.749Z,7.07
2022-11-28T16:17:19.094Z,6.79
2022-11-28T16:19:52.618Z,7.08
2022-11-28T16:24:57.505Z,6.77
2022-11-28T16:27:36.920Z,6.92
2022-11-28T16:30:23.849Z,6.25
2022-11-28T16:32:57.636Z,6.56
2022-11-28T16:36:11.425Z,6.43
2022-11-28T16:38:54.158Z,6.51
2022-11-28T16:42:01.536Z,6.14
2022-11-28T16:44:45.755Z,6.18
2022-11-28T16:47:58.037Z,6.61
2022-11-28T16:51:02.624Z,5.82
2022-11-28T16:53:46.154Z,5.90
2022-11-28T16:56:33.727Z,6.03
2022-11-28T16:59:08.652Z,6.21
2022-11-28T17:01:42.671Z,6.32
2022-11-28T17:04:35.609Z,6.14
2022-11-28T17:07:24.309Z,6.51
2022-11-28T17:10:02.179Z,6.54
2022-11-28T17:16:01.713Z,6.27
2022-11-28T17:18:36.188Z,6.53
2022-11-28T17:21:47.424Z,6.07
2022-11-28T17:24:36.809Z,6.29
2022-11-28T17:27:36.785Z,6.10
2022-11-28T17:30:26.529Z,6.28
2022-11-28T17:35:41.588Z,5.74
2022-11-28T17:38:18.392Z,5.68
2022-11-28T17:40:57.109Z,5.98
2022-11-28T17:46:15.632Z,5.70
2022-11-28T17:51:32.777Z,5.50
2022-11-28T17:54:20.725Z,5.78
2022-11-28T17:56:51.065Z,5.72
2022-11-28T17:59:21.534Z,5.74
2022-11-28T18:01:57.624Z,5.72
2022-11-28T18:04:28.651Z,6.02
2022-11-28T18:07:00.482Z,5.97
2022-11-28T18:09:31.625Z,5.61
2022-11-28T18:14:46.559Z,5.86
2022-11-28T18:17:25.528Z,5.62
2022-11-28T18:19:57.723Z,5.83
2022-11-28T18:22:28.157Z,5.60
2022-11-28T18:25:07.626Z,5.85
2022-11-28T18:27:44.559Z,5.79
2022-11-28T18:30:15.996Z,5.57
2022-11-28T18:32:55.733Z,5.43
2022-11-28T18:38:09.049Z,5.41
2022-11-28T18:40:47.328Z,5.47
2022-11-28T18:43:30.564Z,5.37
2022-11-28T18:46:10.406Z,5.20
2022-11-28T18:48:44.647Z,5.67
2022-11-28T18:53:56.568Z,5.63
2022-11-28T18:56:31.698Z,5.50
2022-11-28T18:59:20.662Z,5.61
2022-11-28T19:01:58.043Z,5.79
2022-11-28T19:07:26.701Z,5.49
2022-11-28T19:15:46.154Z,5.32
2022-11-28T19:18:15.189Z,5.55
2022-11-28T19:20:55.945Z,5.64
2022-11-28T19:23:44.772Z,5.26
2022-11-28T19:26:56.772Z,5.17
2022-11-28T19:32:33.644Z,5.44
2022-11-28T19:35:09.572Z,5.24
2022-11-28T19:38:03.874Z,5.45
2022-11-28T19:40:56.183Z,5.56
2022-11-28T19:43:59.730Z,5.44
2022-11-28T19:46:41.913Z,5.46
2022-11-28T19:49:30.090Z,5.56
2022-11-28T19:52:25.522Z,5.29
2022-11-28T19:55:15.513Z,5.22
2022-11-28T19:58:03.696Z,5.25
2022-11-28T20:00:50.823Z,5.35
2022-11-28T20:03:36.494Z,5.45
2022-11-28T20:06:24.356Z,5.23
2022-11-28T20:09:15.016Z,5.37
2022-11-28T20:12:02.560Z,5.32
2022-11-28T20:14:46.689Z,5.74
2022-11-28T20:17:48.473Z,5.22
2022-11-28T20:20:37.256Z,5.29
2022-11-28T20:23:07.614Z,5.30
2022-11-28T20:25:49.727Z,5.42
2022-11-28T20:28:44.861Z,5.50
2022-11-28T20:31:27.832Z,5.58
2022-11-28T20:34:25.636Z,5.73
2022-11-28T20:36:54.401Z,5.27
2022-11-28T20:39:26.451Z,4.85
2022-11-28T20:42:02.505Z,4.85
2022-11-28T20:44:36.693Z,4.94
2022-11-28T20:47:11.108Z,5.31
2022-11-28T20:49:39.991Z,5.56
2022-11-28T20:52:15.813Z,5.14
2022-11-28T20:54:46.718Z,5.35
2022-11-28T20:57:21.786Z,4.91
2022-11-28T21:00:09.614Z,5.42
2022-11-28T21:02:37.904Z,5.17
2022-11-28T21:05:06.183Z,5.16
2022-11-28T21:07:34.531Z,5.11
2022-11-28T21:10:03.977Z,4.80
2022-11-28T21:12:47.607Z,4.86
2022-11-28T21:15:15.697Z,5.07
2022-11-28T21:17:43.318Z,4.95
2022-11-28T21:20:12.150Z,4.50
2022-11-28T21:22:42.347Z,4.73
2022-11-28T21:25:11.517Z,5.09
2022-11-28T21:27:48.034Z,5.20
2022-11-28T21:30:18.164Z,5.18
2022-11-28T21:32:48.480Z,4.93
2022-11-28T21:35:25.768Z,4.75
2022-11-28T21:38:13.511Z,4.72
2022-11-28T21:40:54.326Z,5.04
2022-11-28T21:43:23.702Z,4.87
2022-11-28T21:46:01.372Z,5.13
2022-11-28T21:48:32.424Z,5.25
2022-11-28T21:51:03.916Z,4.90
2022-11-28T21:53:34.610Z,5.35
2022-11-28T21:56:05.508Z,4.94
2022-11-28T21:58:34.803Z,5.02
2022-11-28T22:01:10.078Z,4.93
2022-11-28T22:03:41.070Z,5.12
2022-11-28T22:06:22.941Z,5.09
2022-11-28T22:08:52.437Z,5.36
2022-11-28T22:11:22.527Z,5.57
2022-11-28T22:13:52.979Z,5.74
2022-11-28T22:16:44.892Z,5.62
2022-11-28T22:19:17.226Z,5.03
2022-11-28T22:21:52.094Z,5.47
2022-11-28T22:24:23.621Z,5.21
2022-11-28T22:26:52.948Z,5.29
2022-11-28T22:29:26.689Z,5.18
2022-11-28T22:31:56.460Z,5.05
2022-11-28T22:34:25.573Z,5.27
2022-11-28T22:36:53.687Z,4.97
2022-11-28T22:39:21.965Z,4.90
2022-11-28T22:42:00.504Z,5.04
2022-11-28T22:44:35.241Z,5.13
2022-11-28T22:47:04.773Z,4.53
2022-11-28T22:49:33.737Z,4.88
2022-11-28T22:52:02.523Z,4.83
2022-11-28T22:54:31.764Z,4.94
2022-11-28T22:57:00.833Z,4.93
2022-11-28T22:59:33.655Z,4.93
2022-11-28T23:02:04.728Z,5.07
2022-11-28T23:04:33.170Z,5.12
2022-11-28T23:07:01.261Z,5.02
2022-11-28T23:09:30.781Z,4.74
2022-11-28T23:12:01.418Z,5.01
2022-11-28T23:14:30.464Z,4.75
2022-11-28T23:21:38.931Z,5.24
2022-11-28T23:24:30.512Z,4.86
2022-11-28T23:27:12.895Z,4.53
2022-11-28T23:30:06.170Z,4.87
2022-11-28T23:32:45.828Z,4.78
2022-11-28T23:35:38.992Z,4.63
2022-11-28T23:38:30.433Z,4.03
2022-11-28T23:41:22.341Z,4.07
2022-11-28T23:44:05.600Z,3.95
2022-11-28T23:46:48.312Z,4.32
2022-11-28T23:49:39.706Z,3.91
2022-11-28T23:52:19.716Z,3.93
2022-11-28T23:55:10.948Z,3.78
2022-11-28T23:57:39.936Z,4.12
